Time;durP1;ratioP1;P1;durP2;ratioP2;P2;SDS_P1;SDS_P2;PMS_P1;PMS_P2;Temp;Humidity;BMP_temperature;BMP_pressure;BME280_temperature;BME280_humidity;BME280_pressure;Samples;Min_cycle;Max_cycle;Signal;HPM_P1;HPM_P2
2023/09/23 00:00:46;;;;;;;8.32;5.25;;;;;;;12.91;69.75;97964.69;6218636;28;20077;-69
2023/09/23 00:03:50;;;;;;;8.23;4.93;;;;;;;12.99;69.70;97958.94;6219518;28;20053;-69
2023/09/23 00:06:52;;;;;;;5.95;4.88;;;;;;;13.11;69.53;97966.19;6219377;28;20053;-69
2023/09/23 00:09:56;;;;;;;6.45;4.95;;;;;;;13.21;69.52;97971.78;6219377;28;20045;-69
2023/09/23 00:12:58;;;;;;;7.43;5.20;;;;;;;13.30;69.37;97973.91;6218485;28;20517;-69
2023/09/23 00:16:08;;;;;;;;;;;;;;;13.34;69.46;97978.09;6219946;28;20050;-69
2023/09/23 00:19:15;;;;;;;10.13;4.65;;;;;;;13.40;68.99;97985.66;6219738;28;19921;-69
2023/09/23 00:22:19;;;;;;;6.22;4.88;;;;;;;13.47;69.01;97987.00;6201715;28;20054;-69
2023/09/23 00:25:24;;;;;;;7.20;5.30;;;;;;;13.56;69.05;97984.75;6218865;28;20433;-69
2023/09/23 00:28:30;;;;;;;5.90;4.78;;;;;;;13.60;69.00;97991.56;6218592;28;20064;-69
2023/09/23 00:31:34;;;;;;;7.40;5.03;;;;;;;13.61;68.91;97980.88;6219659;28;20045;-69
2023/09/23 00:34:39;;;;;;;7.35;5.38;;;;;;;13.67;68.95;98000.81;6218124;28;20461;-68
2023/09/23 00:37:45;;;;;;;7.32;5.05;;;;;;;13.68;68.86;97998.09;6222624;28;20060;-69
2023/09/23 00:40:51;;;;;;;7.38;4.78;;;;;;;13.68;68.91;97997.25;6223672;28;20046;-68
2023/09/23 00:43:54;;;;;;;7.60;5.15;;;;;;;13.69;68.85;97993.66;6223672;28;20149;-69
2023/09/23 00:47:00;;;;;;;6.05;4.22;;;;;;;13.66;68.95;98001.78;6223235;28;20042;-70
2023/09/23 00:50:17;;;;;;;6.30;4.90;;;;;;;13.63;68.98;98013.38;6223148;28;20041;-69
2023/09/23 00:53:25;;;;;;;6.25;4.68;;;;;;;13.61;69.14;98014.41;6224038;28;20049;-69
2023/09/23 00:56:32;;;;;;;7.25;4.60;;;;;;;13.58;69.11;98001.38;6223390;28;20050;-70
2023/09/23 00:59:36;;;;;;;6.72;4.90;;;;;;;13.62;69.25;98013.50;6223680;28;20046;-69
2023/09/23 01:02:41;;;;;;;5.20;4.70;;;;;;;13.61;69.45;98011.78;6222951;28;20069;-69
2023/09/23 01:05:48;;;;;;;6.35;5.10;;;;;;;13.57;69.50;98016.41;6223158;28;20636;-69
2023/09/23 01:08:57;;;;;;;6.75;5.30;;;;;;;13.57;69.78;98015.56;6223301;28;20050;-70
2023/09/23 01:12:03;;;;;;;8.05;5.07;;;;;;;13.58;69.74;98028.66;6223475;28;20050;-68
2023/09/23 01:15:09;;;;;;;8.35;5.60;;;;;;;13.62;69.84;98034.66;6223453;28;20046;-68
2023/09/23 01:18:13;;;;;;;6.82;5.18;;;;;;;13.63;69.80;98031.06;6223276;28;20049;-68
2023/09/23 01:21:18;;;;;;;5.03;4.45;;;;;;;13.63;69.65;98041.63;6223135;28;20633;-68
2023/09/23 01:24:21;;;;;;;7.35;4.65;;;;;;;13.60;69.71;98036.53;6223071;28;20045;-68
2023/09/23 01:27:30;;;;;;;8.43;5.47;;;;;;;13.46;69.92;98040.81;6223045;28;20046;-70
2023/09/23 01:30:31;;;;;;;8.23;5.65;;;;;;;13.46;70.21;98050.53;6204760;28;20053;-69
2023/09/23 01:33:34;;;;;;;11.48;7.13;;;;;;;13.41;70.34;98056.09;6222619;28;20425;-69
2023/09/23 01:36:37;;;;;;;11.07;5.93;;;;;;;13.39;70.43;98060.63;6222030;28;20057;-70
2023/09/23 01:39:52;;;;;;;11.95;6.90;;;;;;;13.40;70.62;98059.69;6205327;28;20037;-69
2023/09/23 01:42:57;;;;;;;8.52;6.05;;;;;;;13.43;70.32;98067.44;6221203;28;20046;-68
2023/09/23 01:46:04;;;;;;;10.80;6.72;;;;;;;13.43;70.39;98067.44;6220302;28;20188;-68
2023/09/23 01:49:11;;;;;;;15.85;8.52;;;;;;;13.30;70.51;98055.84;6221485;28;20080;-68
2023/09/23 01:52:16;;;;;;;8.45;6.47;;;;;;;13.28;70.88;98063.03;6221792;28;20049;-68
2023/09/23 01:55:18;;;;;;;13.38;7.72;;;;;;;13.24;70.90;98072.03;6221465;28;20513;-68
2023/09/23 01:58:24;;;;;;;13.13;7.60;;;;;;;13.18;71.17;98075.88;6220826;28;20149;-68
2023/09/23 02:01:31;;;;;;;10.05;6.90;;;;;;;13.17;71.35;98075.97;6221741;28;20046;-68
2023/09/23 02:04:37;;;;;;;14.02;7.03;;;;;;;13.18;71.20;98085.59;6221894;28;20038;-70
2023/09/23 02:07:45;;;;;;;12.93;6.82;;;;;;;13.24;71.14;98087.88;6221830;28;20037;-69
2023/09/23 02:10:51;;;;;;;11.07;6.65;;;;;;;13.31;71.11;98086.66;6221925;28;20054;-69
2023/09/23 02:13:58;;;;;;;12.95;6.63;;;;;;;13.40;70.82;98091.41;6221748;28;20041;-69
2023/09/23 02:17:04;;;;;;;9.63;6.72;;;;;;;13.44;70.61;98079.69;6222058;28;20124;-69
2023/09/23 02:20:11;;;;;;;11.07;6.95;;;;;;;13.56;70.58;98093.16;6220473;28;20517;-69
2023/09/23 02:23:13;;;;;;;11.10;6.75;;;;;;;13.69;70.33;98088.88;6221051;28;20521;-70
2023/09/23 02:26:14;;;;;;;11.88;7.30;;;;;;;13.84;69.99;98097.72;6203395;28;20042;-69
2023/09/23 02:29:22;;;;;;;15.38;9.50;;;;;;;14.00;69.61;98092.38;6221332;28;20042;-68
2023/09/23 02:32:26;;;;;;;11.85;8.68;;;;;;;14.12;69.23;98110.16;6221531;28;20417;-70
2023/09/23 02:35:29;;;;;;;9.35;6.47;;;;;;;14.32;68.95;98109.84;6219993;28;20129;-70
2023/09/23 02:38:33;;;;;;;10.70;6.35;;;;;;;14.48;68.60;98112.41;6204330;28;20604;-70
2023/09/23 02:41:34;;;;;;;13.77;7.53;;;;;;;14.62;68.13;98111.59;6220890;28;20046;-68
2023/09/23 02:44:35;;;;;;;10.93;7.15;;;;;;;14.73;67.97;98114.44;6203398;28;20049;-68
2023/09/23 02:47:43;;;;;;;11.48;6.75;;;;;;;14.84;67.45;98111.13;6221120;28;20049;-69
2023/09/23 02:50:45;;;;;;;8.15;6.00;;;;;;;14.99;67.29;98119.91;6220233;28;20058;-70
2023/09/23 02:53:49;;;;;;;9.30;6.70;;;;;;;15.14;67.02;98121.56;6221029;28;20441;-70
2023/09/23 02:56:51;;;;;;;12.02;6.47;;;;;;;15.27;66.83;98140.22;6203161;28;20417;-69
2023/09/23 02:59:57;;;;;;;11.73;6.90;;;;;;;15.23;66.38;98120.16;6220373;28;20540;-69
2023/09/23 03:03:01;;;;;;;11.20;7.15;;;;;;;15.43;66.16;98140.94;6220759;28;20505;-69
2023/09/23 03:06:07;;;;;;;9.10;7.28;;;;;;;15.57;66.09;98150.66;6220751;28;20042;-69
2023/09/23 03:09:10;;;;;;;10.20;7.38;;;;;;;15.73;65.67;98152.34;6220419;28;20046;-69
2023/09/23 03:12:15;;;;;;;10.15;7.32;;;;;;;15.84;65.01;98149.84;6219836;28;20131;-69
2023/09/23 03:15:22;;;;;;;8.80;6.63;;;;;;;15.90;65.09;98149.44;6220002;28;20089;-69
2023/09/23 03:18:33;;;;;;;10.93;6.63;;;;;;;16.02;64.63;98159.25;6219797;28;20057;-69
2023/09/23 03:21:42;;;;;;;8.95;6.35;;;;;;;16.15;64.39;98154.81;6220705;28;20133;-69
2023/09/23 03:24:50;;;;;;;12.57;6.70;;;;;;;16.28;64.10;98154.00;6203427;28;20046;-69
2023/09/23 03:27:57;;;;;;;8.43;6.65;;;;;;;16.43;63.80;98152.94;6204978;28;20045;-69
2023/09/23 03:31:01;;;;;;;10.02;6.90;;;;;;;16.67;63.20;98162.84;6220446;28;20046;-69
2023/09/23 03:34:03;;;;;;;10.00;6.43;;;;;;;16.83;62.76;98164.34;6221092;28;20188;-70
2023/09/23 03:37:07;;;;;;;13.25;6.65;;;;;;;17.01;62.40;98167.56;6221593;28;20049;-69
2023/09/23 03:40:09;;;;;;;9.02;6.13;;;;;;;17.19;61.61;98161.88;6219641;28;20054;-69
2023/09/23 03:43:16;;;;;;;10.55;7.10;;;;;;;17.43;61.08;98175.22;6220525;28;20095;-69
2023/09/23 03:46:19;;;;;;;8.50;6.20;;;;;;;17.60;60.47;98179.34;6220601;28;20054;-69
2023/09/23 03:49:24;;;;;;;9.25;6.85;;;;;;;17.83;59.99;98183.84;6220077;28;20049;-69
2023/09/23 03:52:31;;;;;;;9.75;6.45;;;;;;;18.16;59.37;98193.81;6219785;28;20049;-69
2023/09/23 03:55:34;;;;;;;11.02;6.45;;;;;;;18.54;58.40;98200.75;6220395;28;20376;-69
2023/09/23 03:58:38;;;;;;;12.25;7.35;;;;;;;18.86;57.94;98194.78;6202536;28;20045;-69
2023/09/23 04:01:42;;;;;;;13.07;6.10;;;;;;;19.19;56.75;98204.66;6219323;28;20046;-69
2023/09/23 04:04:48;;;;;;;9.80;7.03;;;;;;;19.54;55.88;98206.31;6201800;28;20145;-69
2023/09/23 04:07:52;;;;;;;8.52;5.70;;;;;;;19.78;55.41;98213.34;6219345;28;20049;-69
2023/09/23 04:10:54;;;;;;;12.20;5.95;;;;;;;20.02;54.48;98219.38;6204849;28;20049;-69
2023/09/23 04:14:00;;;;;;;9.68;6.43;;;;;;;20.35;53.58;98229.09;6224706;28;20057;-69
2023/09/23 04:17:05;;;;;;;12.07;6.55;;;;;;;20.64;52.98;98233.88;6224820;28;20046;-68
2023/09/23 04:20:10;;;;;;;7.60;5.30;;;;;;;20.73;52.26;98237.59;6223587;28;20050;-68
2023/09/23 04:23:12;;;;;;;19.35;12.20;;;;;;;20.65;52.22;98235.56;6224285;28;20033;-68
2023/09/23 04:26:21;;;;;;;11.45;7.35;;;;;;;20.68;52.17;98248.66;6224551;28;20421;-70
2023/09/23 04:29:28;;;;;;;11.38;6.18;;;;;;;20.86;51.84;98246.25;6224146;28;20297;-69
2023/09/23 04:32:34;;;;;;;8.98;5.40;;;;;;;21.04;51.20;98252.72;6223950;28;20482;-69
2023/09/23 04:35:36;;;;;;;25.60;15.98;;;;;;;21.05;51.19;98249.03;6223110;28;20049;-69
2023/09/23 04:38:37;;;;;;;19.65;11.98;;;;;;;21.12;51.12;98246.72;6223427;28;20136;-68
2023/09/23 04:41:41;;;;;;;17.83;11.95;;;;;;;21.38;50.31;98243.63;6224026;28;20049;-69
2023/09/23 04:44:48;;;;;;;11.82;7.55;;;;;;;21.69;49.55;98263.22;6223352;28;20051;-69
2023/09/23 04:47:52;;;;;;;10.63;6.95;;;;;;;22.05;48.82;98260.91;6223830;28;20053;-69
2023/09/23 04:50:56;;;;;;;12.05;8.07;;;;;;;22.33;47.96;98257.44;6206377;28;20041;-68
2023/09/23 04:53:57;;;;;;;12.75;7.00;;;;;;;22.26;47.87;98268.88;6222772;28;20683;-69
2023/09/23 04:57:03;;;;;;;15.32;7.47;;;;;;;22.21;48.39;98266.63;6223527;28;20042;-68
2023/09/23 05:00:09;;;;;;;12.40;6.60;;;;;;;22.20;48.38;98272.97;6223700;28;20054;-68
2023/09/23 05:03:13;;;;;;;11.15;6.45;;;;;;;22.22;48.32;98270.13;6223192;28;20046;-68
2023/09/23 05:06:15;;;;;;;10.13;5.80;;;;;;;22.51;47.73;98275.56;6223154;28;20550;-68
2023/09/23 05:09:16;;;;;;;7.18;4.60;;;;;;;22.79;47.25;98279.22;6223272;28;20037;-68
2023/09/23 05:12:20;;;;;;;11.73;8.57;;;;;;;22.85;46.76;98278.66;6222711;28;20133;-68
2023/09/23 05:15:29;;;;;;;8.60;4.72;;;;;;;22.79;46.96;98288.13;6223054;28;20042;-68
2023/09/23 05:18:33;;;;;;;10.80;5.20;;;;;;;22.92;46.58;98278.91;6222298;28;20072;-68
2023/09/23 05:21:39;;;;;;;10.18;4.72;;;;;;;23.40;45.56;98288.75;6222295;28;20417;-68
2023/09/23 05:24:45;;;;;;;9.65;5.18;;;;;;;24.05;44.26;98286.09;6222498;28;20053;-68
2023/09/23 05:27:49;;;;;;;7.97;4.75;;;;;;;24.65;43.04;98287.25;6222780;28;20085;-68
2023/09/23 05:30:53;;;;;;;7.15;4.53;;;;;;;25.33;41.66;98288.50;6222552;28;20046;-68
2023/09/23 05:33:59;;;;;;;12.60;6.07;;;;;;;26.70;39.37;98285.75;6222776;28;20034;-69
2023/09/23 05:37:06;;;;;;;17.55;10.65;;;;;;;29.45;35.06;98290.34;6204844;28;20066;-69
2023/09/23 05:40:10;;;;;;;8.07;5.65;;;;;;;32.46;30.50;98303.16;6222246;28;20053;-69
2023/09/23 05:43:12;;;;;;;8.13;4.50;;;;;;;34.83;27.56;98283.94;6222603;28;20536;-69
2023/09/23 05:46:18;;;;;;;6.60;3.35;;;;;;;36.41;24.59;98287.28;6222460;28;20097;-69
2023/09/23 05:49:23;;;;;;;5.60;3.80;;;;;;;36.60;25.00;98297.19;6222231;28;20466;-69
2023/09/23 05:52:24;;;;;;;9.48;5.45;;;;;;;37.97;22.91;98285.22;6221441;28;20090;-69
2023/09/23 05:55:31;;;;;;;9.77;4.43;;;;;;;39.77;21.15;98302.31;6222119;28;20046;-68
2023/09/23 05:58:35;;;;;;;9.32;3.80;;;;;;;41.47;19.34;98299.28;6222028;28;20046;-67
2023/09/23 06:01:42;;;;;;;7.05;3.75;;;;;;;43.08;17.75;98308.03;6222080;28;20058;-68
2023/09/23 06:04:46;;;;;;;7.68;3.83;;;;;;;43.00;17.60;98306.66;6203850;28;20054;-67
2023/09/23 06:07:49;;;;;;;8.32;3.95;;;;;;;42.02;18.26;98304.66;6222161;28;20049;-68
2023/09/23 06:10:59;;;;;;;6.22;3.47;;;;;;;40.58;19.31;98286.81;6221576;28;20132;-68
2023/09/23 06:14:01;;;;;;;8.90;3.72;;;;;;;39.27;20.31;98284.69;6221701;28;20417;-68
2023/09/23 06:17:05;;;;;;;11.00;5.65;;;;;;;39.91;19.69;98298.09;6221640;28;20505;-68
2023/09/23 06:20:07;;;;;;;7.05;3.65;;;;;;;37.56;21.85;98285.34;6221458;28;20034;-68
2023/09/23 06:23:10;;;;;;;8.98;4.40;;;;;;;35.42;23.88;98283.72;6221677;28;20042;-68
2023/09/23 06:26:15;;;;;;;9.07;4.45;;;;;;;35.10;24.39;98275.56;6221485;28;20049;-68
2023/09/23 06:29:22;;;;;;;11.48;4.03;;;;;;;36.97;22.37;98290.72;6204120;28;20072;-68
2023/09/23 06:32:23;;;;;;;13.48;8.00;;;;;;;35.34;23.72;98292.22;6220920;28;20054;-68
2023/09/23 06:35:25;;;;;;;26.80;13.38;;;;;;;32.99;26.43;98289.63;6220321;28;20054;-68
2023/09/23 06:38:31;;;;;;;10.27;5.85;;;;;;;30.65;29.64;98289.22;6221191;28;20050;-69
2023/09/23 06:41:36;;;;;;;13.18;5.28;;;;;;;28.96;31.65;98274.53;6220128;28;20356;-69
2023/09/23 06:44:42;;;;;;;19.65;6.47;;;;;;;27.70;33.82;98278.22;6220953;28;20536;-69
2023/09/23 06:47:46;;;;;;;11.07;5.75;;;;;;;27.21;34.73;98283.75;6220492;28;20053;-69
2023/09/23 06:51:00;;;;;;;11.32;5.93;;;;;;;27.12;35.42;98279.34;6220985;28;20042;-69
2023/09/23 06:54:04;;;;;;;31.35;18.33;;;;;;;26.91;35.81;98281.69;6221243;28;20088;-70
2023/09/23 06:57:06;;;;;;;16.15;8.60;;;;;;;26.49;36.24;98277.22;6219769;28;20058;-69
2023/09/23 07:00:08;;;;;;;11.90;6.75;;;;;;;26.48;36.30;98280.94;6220835;28;20065;-69
2023/09/23 07:03:11;;;;;;;10.25;6.35;;;;;;;27.42;34.90;98274.25;6220724;28;20088;-69
2023/09/23 07:06:18;;;;;;;8.88;6.13;;;;;;;28.03;33.86;98278.13;6327092;27;1941191;-69
2023/09/23 07:09:19;;;;;;;10.53;6.50;;;;;;;28.65;33.05;98272.72;6366496;28;20131;-70
2023/09/23 07:12:24;;;;;;;10.82;6.07;;;;;;;31.90;29.32;98279.59;6365985;27;20461;-69
2023/09/23 07:15:25;;;;;;;14.57;7.93;;;;;;;35.18;25.27;98286.22;6366408;28;20205;-69
2023/09/23 07:18:29;;;;;;;16.30;9.27;;;;;;;35.41;24.13;98303.94;6364208;28;20424;-69
2023/09/23 07:21:30;;;;;;;11.55;6.07;;;;;;;37.25;22.73;98301.06;6365310;27;20051;-69
2023/09/23 07:24:38;;;;;;;10.35;5.15;;;;;;;40.81;19.15;98302.25;6365849;27;20063;-69
2023/09/23 07:27:44;;;;;;;11.38;5.25;;;;;;;43.04;17.16;98305.00;6364131;28;20065;-68
2023/09/23 07:30:48;;;;;;;11.10;5.13;;;;;;;40.83;18.44;98304.78;6366466;28;20043;-69
2023/09/23 07:33:49;;;;;;;10.32;6.47;;;;;;;38.04;21.06;98295.25;6365960;28;20045;-70
2023/09/23 07:36:58;;;;;;;10.43;5.90;;;;;;;35.22;23.78;98292.09;6365856;28;20043;-69
2023/09/23 07:39:59;;;;;;;15.00;6.43;;;;;;;33.26;25.74;98285.03;6365669;28;20035;-68
2023/09/23 07:43:03;;;;;;;10.00;6.30;;;;;;;32.09;27.21;98284.31;6365876;28;20035;-68
2023/09/23 07:46:07;;;;;;;13.63;7.03;;;;;;;32.42;27.35;98276.28;6365619;28;20043;-70
2023/09/23 07:49:08;;;;;;;9.25;5.70;;;;;;;33.45;26.00;98280.63;6365581;28;20046;-70
2023/09/23 07:52:12;;;;;;;11.07;5.93;;;;;;;33.13;26.45;98274.16;6363807;28;20047;-69
2023/09/23 07:55:16;;;;;;;11.77;6.00;;;;;;;32.26;27.00;98260.31;6365280;28;20416;-69
2023/09/23 07:58:23;;;;;;;11.18;5.43;;;;;;;31.35;28.32;98287.59;6365290;28;20039;-70
2023/09/23 08:01:25;;;;;;;8.60;5.78;;;;;;;31.07;29.02;98279.41;6365250;28;20058;-69
2023/09/23 08:04:29;;;;;;;11.98;5.43;;;;;;;31.62;27.79;98277.78;6364565;28;20059;-70
2023/09/23 08:07:33;;;;;;;10.48;5.13;;;;;;;32.24;27.49;98280.59;6365113;28;20046;-69
2023/09/23 08:10:34;;;;;;;10.40;5.68;;;;;;;33.65;25.68;98281.44;6364903;28;20130;-69
2023/09/23 08:13:41;;;;;;;13.85;6.97;;;;;;;34.70;24.32;98280.44;6364817;28;20496;-69
2023/09/23 08:16:50;;;;;;;12.55;8.15;;;;;;;34.52;24.36;98294.84;6353191;28;20074;-69
2023/09/23 08:19:53;;;;;;;12.07;5.75;;;;;;;33.96;25.07;98288.94;6346914;28;20519;-69
2023/09/23 08:22:56;;;;;;;16.00;6.18;;;;;;;32.54;26.66;98286.63;6347787;28;20035;-69
2023/09/23 08:25:58;;;;;;;12.35;7.30;;;;;;;30.84;29.12;98277.75;6347415;28;20043;-69
2023/09/23 08:29:00;;;;;;;16.98;6.57;;;;;;;29.51;30.77;98284.19;6347864;28;20436;-69
2023/09/23 08:32:03;;;;;;;14.27;6.68;;;;;;;28.49;32.54;98272.81;6347570;28;20031;-69
2023/09/23 08:35:06;;;;;;;10.70;6.70;;;;;;;27.58;33.87;98279.63;6347729;28;20036;-69
2023/09/23 08:38:10;;;;;;;15.68;7.13;;;;;;;26.84;35.31;98270.72;6345625;28;20050;-69
2023/09/23 08:41:21;;;;;;;12.05;6.70;;;;;;;26.97;35.30;98276.44;6347217;28;20122;-69
2023/09/23 08:44:31;;;;;;;26.05;18.48;;;;;;;29.77;31.42;98278.31;6347374;28;20410;-69
2023/09/23 08:47:37;;;;;;;18.85;12.73;;;;;;;33.41;26.41;98287.56;6347308;28;20047;-69
2023/09/23 08:50:53;;;;;;;8.27;5.88;;;;;;;36.87;23.04;98296.78;6347149;28;20173;-69
2023/09/23 08:53:58;;;;;;;14.30;6.15;;;;;;;37.24;21.90;98297.50;6345414;28;20052;-68
2023/09/23 08:56:59;;;;;;;10.02;5.63;;;;;;;37.02;22.28;98299.94;6346678;28;20134;-68
2023/09/23 09:00:10;;;;;;;10.13;5.82;;;;;;;37.25;21.97;98292.81;6345640;28;20413;-68
2023/09/23 09:03:17;;;;;;;7.82;5.18;;;;;;;36.89;22.03;98300.16;6346991;28;20039;-68
2023/09/23 09:06:29;;;;;;;8.88;5.05;;;;;;;34.96;23.78;98301.31;6346248;28;20424;-68
2023/09/23 09:09:33;;;;;;;10.45;6.15;;;;;;;32.94;26.30;98298.41;6346735;28;20108;-68
2023/09/23 09:12:39;;;;;;;12.07;6.32;;;;;;;31.32;28.48;98294.25;6345459;28;20043;-68
2023/09/23 09:15:40;;;;;;;11.40;6.47;;;;;;;29.57;30.72;98285.31;6346325;28;20032;-68
2023/09/23 09:18:49;;;;;;;13.73;5.65;;;;;;;28.45;32.42;98276.06;6345194;28;20070;-68
2023/09/23 09:21:54;;;;;;;10.88;6.38;;;;;;;28.02;33.25;98281.84;6346417;28;20036;-68
2023/09/23 09:24:57;;;;;;;7.47;5.13;;;;;;;27.65;33.85;98277.88;6346416;28;20500;-68
2023/09/23 09:28:02;;;;;;;8.40;4.72;;;;;;;27.53;33.92;98282.00;6344840;28;20031;-69
2023/09/23 09:31:12;;;;;;;10.15;4.70;;;;;;;27.56;33.91;98278.94;6345161;28;20530;-69
2023/09/23 09:34:18;;;;;;;9.23;4.60;;;;;;;29.73;30.93;98282.44;6346367;28;20040;-70
2023/09/23 09:37:25;;;;;;;8.25;4.53;;;;;;;34.59;25.00;98292.91;6345932;28;20581;-69
2023/09/23 09:40:32;;;;;;;6.82;3.97;;;;;;;38.77;20.87;98313.81;6346186;28;20039;-70
2023/09/23 09:43:39;;;;;;;10.55;4.85;;;;;;;41.02;18.08;98319.00;6345841;28;20040;-69
2023/09/23 09:46:42;;;;;;;7.88;3.88;;;;;;;42.07;17.38;98318.47;6344986;28;20172;-69
2023/09/23 09:49:49;;;;;;;5.60;3.55;;;;;;;43.24;15.97;98310.56;6345617;28;20040;-69
2023/09/23 09:52:53;;;;;;;6.68;3.08;;;;;;;44.77;15.03;98314.09;6345583;28;20051;-69
2023/09/23 09:55:58;;;;;;;8.60;4.10;;;;;;;45.80;14.12;98308.53;6330312;28;20039;-69
2023/09/23 09:59:06;;;;;;;7.95;4.00;;;;;;;45.49;14.41;98303.25;6317712;28;20123;-69
2023/09/23 10:02:15;;;;;;;6.60;3.33;;;;;;;45.41;14.55;98301.97;6319380;28;20130;-69
2023/09/23 10:05:17;;;;;;;10.52;4.80;;;;;;;45.99;14.00;98309.47;6319940;28;20067;-67
2023/09/23 10:08:24;;;;;;;7.13;3.03;;;;;;;46.22;13.49;98299.44;6319824;28;20036;-67
2023/09/23 10:11:39;;;;;;;5.82;3.05;;;;;;;46.43;13.25;98300.06;6319401;28;21177;-69
2023/09/23 10:14:52;;;;;;;7.65;2.53;;;;;;;46.70;13.05;98298.59;6319121;28;20453;-68
2023/09/23 10:18:02;;;;;;;5.00;2.85;;;;;;;46.44;13.43;98300.88;6318933;28;20532;-68
2023/09/23 10:21:04;;;;;;;4.28;1.90;;;;;;;45.55;13.47;98290.16;6319144;28;20449;-69
2023/09/23 10:24:09;;;;;;;5.97;2.40;;;;;;;45.06;13.74;98302.22;6318977;28;20516;-68
2023/09/23 10:27:10;;;;;;;9.02;7.05;;;;;;;44.43;14.34;98286.22;6318796;28;20066;-67
2023/09/23 10:30:22;;;;;;;;;;;;;;;43.37;15.06;98294.50;6319461;28;20044;-68
2023/09/23 10:33:26;;;;;;;8.97;4.80;;;;;;;39.37;18.21;98281.28;6318989;28;19965;-69
2023/09/23 10:36:28;;;;;;;7.60;4.90;;;;;;;35.90;21.54;98269.34;6319567;28;20517;-68
2023/09/23 10:39:32;;;;;;;8.77;5.13;;;;;;;34.02;23.88;98267.28;6319179;28;20048;-70
2023/09/23 10:42:34;;;;;;;10.90;5.40;;;;;;;32.87;25.60;98265.72;6319255;28;20123;-68
2023/09/23 10:45:40;;;;;;;9.00;5.05;;;;;;;31.75;27.31;98266.94;6319467;28;20131;-68
2023/09/23 10:48:44;;;;;;;7.55;5.82;;;;;;;31.88;27.17;98259.91;6319011;28;20553;-70
2023/09/23 10:51:48;;;;;;;11.07;5.93;;;;;;;33.13;25.65;98257.78;6319175;28;20044;-68
2023/09/23 10:54:55;;;;;;;9.65;5.18;;;;;;;35.00;23.50;98259.63;6319155;28;20138;-70
2023/09/23 10:57:59;;;;;;;7.70;5.07;;;;;;;36.25;22.15;98266.00;6319114;28;20039;-70
2023/09/23 11:01:00;;;;;;;10.87;6.60;;;;;;;35.92;22.35;98258.97;6318377;28;20429;-69
2023/09/23 11:04:04;;;;;;;10.75;6.05;;;;;;;34.91;23.46;98266.44;6318737;28;20052;-68
2023/09/23 11:07:06;;;;;;;8.67;6.07;;;;;;;33.26;25.19;98261.34;6318818;28;20486;-70
2023/09/23 11:10:19;;;;;;;8.93;5.63;;;;;;;31.00;27.81;98257.63;6319160;28;20048;-68
2023/09/23 11:13:25;;;;;;;10.20;5.35;;;;;;;30.12;29.89;98258.72;6318379;28;20051;-70
2023/09/23 11:16:29;;;;;;;12.82;5.93;;;;;;;29.88;29.89;98255.31;6318738;28;20040;-70
2023/09/23 11:19:36;;;;;;;8.85;5.13;;;;;;;28.92;31.26;98246.09;6318739;28;20044;-70
2023/09/23 11:22:43;;;;;;;10.65;5.82;;;;;;;27.77;33.01;98241.34;6318939;28;20122;-70
2023/09/23 11:25:49;;;;;;;12.32;5.10;;;;;;;27.13;33.95;98251.28;6318087;28;20079;-70
2023/09/23 11:28:53;;;;;;;8.65;4.72;;;;;;;26.88;34.56;98251.31;6317798;28;20052;-70
2023/09/23 11:32:00;;;;;;;8.40;5.45;;;;;;;28.13;32.63;98253.56;6318829;28;20520;-70
2023/09/23 11:35:02;;;;;;;11.48;5.18;;;;;;;28.18;32.60;98254.69;6318770;28;20036;-70
2023/09/23 11:38:05;;;;;;;8.50;4.65;;;;;;;28.59;32.19;98246.38;6318648;28;20048;-70
2023/09/23 11:41:09;;;;;;;7.82;4.53;;;;;;;29.15;30.98;98250.66;6318469;28;20036;-70
2023/09/23 11:44:16;;;;;;;6.25;3.85;;;;;;;28.25;32.13;98251.28;6300841;28;20044;-70
2023/09/23 11:47:24;;;;;;;15.18;8.52;;;;;;;28.17;32.42;98253.03;6318087;28;20058;-70
2023/09/23 11:50:26;;;;;;;8.88;5.15;;;;;;;27.79;33.30;98248.44;6318256;28;20048;-70
2023/09/23 11:53:28;;;;;;;;;;;;;;;27.64;33.17;98243.75;6323150;28;20040;-70
2023/09/23 11:56:32;;;;;;;8.05;5.93;;;;;;;26.72;34.76;98242.34;6322745;28;19920;-70
2023/09/23 11:59:40;;;;;;;13.50;7.22;;;;;;;26.07;36.05;98240.38;6323197;28;20040;-70
2023/09/23 12:02:44;;;;;;;7.25;4.97;;;;;;;25.69;36.41;98242.56;6322647;28;20047;-70
2023/09/23 12:05:50;;;;;;;9.95;6.70;;;;;;;25.51;37.05;98239.97;6322257;28;20055;-70
2023/09/23 12:08:51;;;;;;;5.15;3.65;;;;;;;25.26;37.54;98233.59;6322681;28;20459;-70
2023/09/23 12:11:59;;;;;;;9.07;4.55;;;;;;;24.88;38.27;98243.72;6322791;28;20048;-70
2023/09/23 12:15:04;;;;;;;11.60;4.18;;;;;;;24.61;39.06;98232.06;6322813;28;20130;-70
2023/09/23 12:18:08;;;;;;;9.55;3.75;;;;;;;24.39;39.20;98232.50;6322530;28;20047;-69
2023/09/23 12:21:10;;;;;;;4.95;3.70;;;;;;;24.61;39.39;98237.44;6322636;28;20445;-70
2023/09/23 12:24:12;;;;;;;6.40;3.58;;;;;;;25.33;38.23;98231.09;6322377;28;20032;-68
2023/09/23 12:27:20;;;;;;;5.65;3.92;;;;;;;25.95;36.71;98237.97;6321635;28;20513;-70
2023/09/23 12:30:24;;;;;;;5.70;3.63;;;;;;;26.60;36.03;98241.84;6322284;28;20040;-70
2023/09/23 12:33:27;;;;;;;9.55;5.55;;;;;;;27.12;35.00;98238.81;6322004;28;20055;-68
2023/09/23 12:36:29;;;;;;;7.82;3.80;;;;;;;27.15;35.07;98234.88;6320577;28;20054;-70
2023/09/23 12:39:33;;;;;;;8.85;5.78;;;;;;;26.85;35.64;98230.03;6321821;28;20042;-70
2023/09/23 12:42:39;;;;;;;6.25;4.95;;;;;;;26.48;36.11;98221.56;6322593;28;20521;-69
2023/09/23 12:45:46;;;;;;;8.80;4.40;;;;;;;25.84;36.80;98184.34;6321478;28;20060;-70
2023/09/23 12:48:47;;;;;;;8.98;4.30;;;;;;;26.16;36.90;98236.69;6321621;28;20433;-69
2023/09/23 12:51:48;;;;;;;7.10;4.07;;;;;;;26.05;37.04;98231.63;6322209;28;20424;-69
2023/09/23 12:54:52;;;;;;;5.50;3.67;;;;;;;25.62;37.65;98226.22;6321767;28;20039;-70
2023/09/23 12:57:58;;;;;;;7.18;4.53;;;;;;;25.34;38.11;98230.94;6322160;28;20039;-69
2023/09/23 13:01:06;;;;;;;7.30;4.05;;;;;;;25.14;38.62;98237.50;6321937;28;20043;-69
2023/09/23 13:04:15;;;;;;;22.15;13.38;;;;;;;24.91;38.83;98237.19;6322503;28;20048;-69
2023/09/23 13:07:19;;;;;;;11.02;5.03;;;;;;;24.78;38.89;98238.44;6321574;28;20048;-70
2023/09/23 13:10:25;;;;;;;4.85;3.28;;;;;;;24.51;39.21;98231.28;6321673;28;20040;-70
2023/09/23 13:13:26;;;;;;;6.85;3.63;;;;;;;23.99;40.42;98220.34;6321220;28;20048;-69
2023/09/23 13:16:28;;;;;;;20.15;12.57;;;;;;;23.55;41.03;98228.16;6320707;28;20046;-68
2023/09/23 13:19:35;;;;;;;10.07;6.63;;;;;;;23.15;42.00;98226.63;6321106;28;20424;-69
2023/09/23 13:22:42;;;;;;;13.35;7.00;;;;;;;22.85;42.69;98235.72;6321209;28;20044;-68
2023/09/23 13:25:48;;;;;;;23.17;15.38;;;;;;;22.52;43.57;98234.31;6320989;28;20052;-69
2023/09/23 13:28:49;;;;;;;11.15;7.32;;;;;;;22.25;44.23;98243.03;6320663;28;20129;-68
2023/09/23 13:31:53;;;;;;;9.00;5.72;;;;;;;21.96;45.04;98228.56;6320804;28;20040;-70
2023/09/23 13:34:59;;;;;;;11.70;6.20;;;;;;;21.85;45.72;98242.09;6320697;28;20127;-68
2023/09/23 13:38:06;;;;;;;12.25;6.88;;;;;;;21.66;46.44;98239.38;6319340;28;20044;-68
2023/09/23 13:41:10;;;;;;;14.27;6.82;;;;;;;21.46;46.89;98241.13;6319488;28;20445;-70
2023/09/23 13:44:14;;;;;;;11.23;6.30;;;;;;;21.25;47.46;98241.97;6319562;28;20048;-70
2023/09/23 13:47:22;;;;;;;10.93;6.63;;;;;;;21.06;48.29;98240.06;6320314;28;20044;-69
2023/09/23 13:50:27;;;;;;;11.68;6.93;;;;;;;20.84;48.69;98237.53;6320346;28;20048;-69
2023/09/23 13:53:28;;;;;;;19.45;8.77;;;;;;;20.72;49.01;98247.44;6318614;28;20047;-69
2023/09/23 13:56:32;;;;;;;26.58;15.07;;;;;;;20.62;49.75;98251.84;6319731;28;20174;-69
2023/09/23 13:59:34;;;;;;;39.42;18.02;;;;;;;20.52;50.33;98246.41;6319426;28;20051;-69
2023/09/23 14:02:40;;;;;;;42.30;22.08;;;;;;;20.46;50.99;98254.91;6319761;28;20048;-70
2023/09/23 14:05:47;;;;;;;32.92;20.52;;;;;;;20.40;50.57;98260.78;6319819;28;20090;-69
2023/09/23 14:08:48;;;;;;;63.30;33.60;;;;;;;20.30;51.40;98257.19;6319735;28;20123;-69
2023/09/23 14:11:50;;;;;;;32.70;17.73;;;;;;;20.27;51.09;98260.97;6318783;28;20039;-69
2023/09/23 14:14:54;;;;;;;31.60;16.92;;;;;;;20.28;51.01;98259.13;6319606;28;20040;-70
2023/09/23 14:18:03;;;;;;;11.43;7.95;;;;;;;20.31;50.28;98253.53;6321851;28;20039;-70
2023/09/23 14:21:07;;;;;;;23.85;13.90;;;;;;;20.28;51.07;98259.13;6318143;28;20422;-70
2023/09/23 14:24:11;;;;;;;11.50;7.35;;;;;;;20.23;50.65;98250.63;6321073;28;20035;-69